Time;durP1;ratioP1;P1;durP2;ratioP2;P2;SDS_P1;SDS_P2;PMS_P1;PMS_P2;Temp;Humidity;BMP_temperature;BMP_pressure;BME280_temperature;BME280_humidity;BME280_pressure;Samples;Min_cycle;Max_cycle;Signal;HPM_P1;HPM_P2
2022/06/03 00:00:07;;;;;;;4.55;2.30;;;12.50;94.50;;;;;;5069000;28;20118;-44
2022/06/03 00:03:17;;;;;;;5.63;3.42;;;12.40;94.60;;;;;;5059871;28;20080;-44
2022/06/03 00:06:20;;;;;;;8.20;2.90;;;12.40;94.50;;;;;;5068110;28;20409;-44
2022/06/03 00:09:17;;;;;;;3.92;2.35;;;12.40;94.90;;;;;;5064510;28;20460;-44
2022/06/03 00:12:04;;;;;;;5.97;3.22;;;12.40;94.70;;;;;;5057352;28;20437;-44
2022/06/03 00:14:51;;;;;;;5.50;3.03;;;12.30;94.70;;;;;;5060389;28;20049;-44
2022/06/03 00:17:32;;;;;;;5.07;2.60;;;12.30;95.10;;;;;;5052714;28;20529;-44
2022/06/03 00:20:03;;;;;;;5.72;2.95;;;12.30;94.90;;;;;;5053436;28;20104;-44
2022/06/03 00:22:52;;;;;;;5.93;2.63;;;12.20;95.00;;;;;;5053273;28;20053;-44
2022/06/03 00:25:34;;;;;;;6.30;3.03;;;12.20;94.60;;;;;;5072070;28;20048;-44
2022/06/03 00:28:03;;;;;;;;;;;12.20;95.20;;;;;;5068393;28;20093;-43
2022/06/03 00:30:48;;;;;;;6.65;2.95;;;12.10;94.80;;;;;;5073269;28;19928;-43
2022/06/03 00:33:53;;;;;;;6.00;2.72;;;12.10;95.10;;;;;;5061062;28;20066;-44
2022/06/03 00:36:33;;;;;;;4.78;3.33;;;12.00;95.20;;;;;;5023515;28;20115;-44
2022/06/03 00:39:17;;;;;;;5.22;2.38;;;12.00;95.50;;;;;;5064982;28;20055;-44
2022/06/03 00:41:52;;;;;;;4.30;2.60;;;12.00;95.20;;;;;;5052869;28;20049;-43
2022/06/03 00:44:46;;;;;;;4.85;3.17;;;12.00;95.70;;;;;;5055674;28;20056;-42
2022/06/03 00:47:24;;;;;;;8.50;3.50;;;12.00;95.50;;;;;;5042612;28;20052;-43
2022/06/03 00:50:00;;;;;;;3.95;2.88;;;12.00;95.80;;;;;;5061754;28;20047;-44
2022/06/03 00:52:45;;;;;;;3.60;2.58;;;11.90;95.70;;;;;;5060337;28;20136;-44
2022/06/03 00:55:52;;;;;;;6.15;3.30;;;11.90;95.50;;;;;;5064580;28;20080;-43
2022/06/03 00:58:35;;;;;;;5.70;2.95;;;11.90;95.20;;;;;;5067884;28;20083;-44
2022/06/03 01:01:11;;;;;;;6.88;3.42;;;11.80;95.40;;;;;;5051938;28;20094;-44
2022/06/03 01:03:47;;;;;;;5.60;3.30;;;11.80;95.50;;;;;;5065340;28;20064;-44
2022/06/03 01:06:22;;;;;;;8.07;3.95;;;11.80;95.60;;;;;;5066052;28;20578;-44
2022/06/03 01:09:03;;;;;;;4.13;3.00;;;11.80;96.00;;;;;;5072779;28;20084;-43
2022/06/03 01:11:57;;;;;;;6.82;3.45;;;11.70;95.90;;;;;;5072555;28;20451;-43
2022/06/03 01:14:31;;;;;;;6.10;3.33;;;11.70;95.40;;;;;;5071003;28;20090;-44
2022/06/03 01:17:03;;;;;;;5.15;3.20;;;11.70;95.80;;;;;;5070579;28;20412;-43
2022/06/03 01:19:51;;;;;;;5.57;3.65;;;11.70;95.80;;;;;;5065624;28;20045;-43
2022/06/03 01:22:38;;;;;;;6.20;3.20;;;11.60;95.80;;;;;;5085893;28;20087;-43
2022/06/03 01:25:38;;;;;;;6.28;3.08;;;11.50;95.60;;;;;;5056368;28;20447;-44
2022/06/03 01:28:40;;;;;;;5.47;3.25;;;11.60;95.90;;;;;;5061446;28;20148;-44
2022/06/03 01:31:16;;;;;;;5.65;3.55;;;11.50;95.90;;;;;;5055230;28;20409;-44
2022/06/03 01:33:52;;;;;;;4.55;3.45;;;11.50;96.10;;;;;;5068517;28;20600;-43
2022/06/03 01:36:43;;;;;;;6.28;3.25;;;11.50;96.20;;;;;;5073285;28;20045;-43
2022/06/03 01:39:26;;;;;;;5.82;3.00;;;11.50;95.90;;;;;;5059744;28;20107;-43
2022/06/03 01:42:25;;;;;;;8.48;3.55;;;11.40;96.20;;;;;;5070573;28;20455;-44
2022/06/03 01:45:08;;;;;;;4.60;3.17;;;11.40;96.10;;;;;;5076416;28;20088;-43
2022/06/03 01:48:01;;;;;;;6.80;3.60;;;11.30;96.50;;;;;;5069126;28;20514;-43
2022/06/03 01:50:45;;;;;;;5.45;3.25;;;11.30;96.20;;;;;;5071442;28;20412;-43
2022/06/03 01:53:33;;;;;;;4.95;3.13;;;11.30;96.30;;;;;;5057784;28;20132;-43
2022/06/03 01:56:26;;;;;;;5.93;3.70;;;11.20;96.30;;;;;;5044123;28;20493;-43
2022/06/03 01:59:35;;;;;;;6.63;3.00;;;11.20;96.00;;;;;;5057392;28;20053;-44
2022/06/03 02:02:31;;;;;;;6.57;3.38;;;11.20;96.10;;;;;;5070876;28;20056;-43
2022/06/03 02:05:41;;;;;;;5.75;3.03;;;11.10;96.20;;;;;;5059699;28;20064;-43
2022/06/03 02:08:47;;;;;;;7.07;3.40;;;11.10;95.90;;;;;;5073305;28;20123;-43
2022/06/03 02:11:48;;;;;;;5.80;3.58;;;11.10;95.90;;;;;;5073398;28;20129;-43
2022/06/03 02:14:39;;;;;;;5.10;3.65;;;11.00;95.90;;;;;;5064765;28;20106;-44
2022/06/03 02:17:19;;;;;;;5.80;3.80;;;11.00;96.40;;;;;;5071059;28;20048;-43
2022/06/03 02:20:22;;;;;;;5.43;4.35;;;11.00;96.70;;;;;;5059616;28;20427;-43
2022/06/03 02:23:30;;;;;;;4.40;3.55;;;10.90;96.50;;;;;;5057623;28;20131;-44
2022/06/03 02:26:23;;;;;;;7.18;4.80;;;10.90;96.60;;;;;;5019396;28;20463;-44
2022/06/03 02:32:01;;;;;;;6.00;3.97;;;10.90;96.70;;;;;;5073479;28;20052;-43
2022/06/03 02:34:53;;;;;;;5.10;3.55;;;10.80;97.00;;;;;;5055297;28;20460;-43
2022/06/03 02:37:44;;;;;;;6.38;3.78;;;10.80;96.70;;;;;;5079162;28;20450;-43
2022/06/03 02:40:32;;;;;;;6.85;3.92;;;10.80;96.60;;;;;;5064634;28;20529;-43
2022/06/03 02:43:35;;;;;;;7.78;4.32;;;10.70;96.70;;;;;;5062149;28;20501;-43
2022/06/03 02:46:39;;;;;;;7.93;4.00;;;10.80;97.00;;;;;;5055643;28;20072;-43
2022/06/03 02:49:49;;;;;;;7.25;4.32;;;10.70;96.70;;;;;;5075144;28;20088;-43
2022/06/03 02:52:37;;;;;;;12.02;5.20;;;10.60;96.60;;;;;;5057774;28;20186;-43
2022/06/03 02:55:20;;;;;;;5.35;3.95;;;10.60;97.60;;;;;;5063507;28;20525;-43
2022/06/03 02:58:13;;;;;;;6.05;4.00;;;10.60;97.30;;;;;;5053532;28;20091;-43
2022/06/03 03:00:51;;;;;;;10.30;4.35;;;10.60;97.30;;;;;;5054609;28;20456;-44
2022/06/03 03:03:45;;;;;;;5.53;3.95;;;10.50;97.30;;;;;;5063695;28;20807;-44
2022/06/03 03:06:26;;;;;;;7.85;4.45;;;10.50;97.20;;;;;;5069246;28;20501;-44
2022/06/03 03:09:09;;;;;;;7.63;4.20;;;10.50;97.50;;;;;;5069651;28;20504;-43
2022/06/03 03:11:59;;;;;;;4.55;3.97;;;10.50;97.50;;;;;;5068709;28;20052;-44
2022/06/03 03:14:49;;;;;;;5.35;4.13;;;10.50;97.30;;;;;;5056501;28;20556;-44
2022/06/03 03:17:47;;;;;;;6.22;4.30;;;10.40;97.00;;;;;;5057228;28;20059;-44
2022/06/03 03:20:38;;;;;;;8.13;4.18;;;10.40;97.50;;;;;;5024901;28;20065;-44
2022/06/03 03:23:35;;;;;;;5.97;3.88;;;10.40;97.30;;;;;;5061086;28;20140;-44
2022/06/03 03:26:06;;;;;;;7.72;5.20;;;10.40;97.40;;;;;;5031678;28;20519;-44
2022/06/03 03:28:57;;;;;;;10.20;4.47;;;10.40;97.90;;;;;;5060561;28;20143;-44
2022/06/03 03:31:30;;;;;;;8.10;4.78;;;10.40;97.70;;;;;;5070185;28;20052;-44
2022/06/03 03:34:10;;;;;;;5.10;3.83;;;10.30;97.80;;;;;;5062299;28;20131;-44
2022/06/03 03:37:13;;;;;;;8.55;5.15;;;10.30;97.70;;;;;;5056429;28;20099;-42
2022/06/03 03:40:13;;;;;;;6.35;4.63;;;10.30;97.70;;;;;;5066193;28;20106;-43
2022/06/03 03:43:05;;;;;;;8.60;4.85;;;10.30;97.80;;;;;;5058952;28;20090;-43
2022/06/03 03:45:47;;;;;;;;;;;10.30;97.90;;;;;;5073455;28;20056;-42
2022/06/03 03:48:47;;;;;;;9.88;5.22;;;10.30;96.80;;;;;;5069242;28;19963;-43
2022/06/03 03:51:20;;;;;;;8.68;5.20;;;10.30;97.90;;;;;;5054853;28;20097;-44
2022/06/03 03:54:18;;;;;;;7.65;5.60;;;10.30;98.20;;;;;;5059251;28;20049;-43
2022/06/03 03:57:27;;;;;;;10.98;5.85;;;10.30;98.20;;;;;;5059336;28;20053;-43
2022/06/03 04:00:10;;;;;;;12.68;6.72;;;10.30;98.50;;;;;;5057797;28;20074;-43
2022/06/03 04:02:54;;;;;;;12.80;8.30;;;10.30;99.20;;;;;;5064261;28;20052;-43
2022/06/03 04:06:01;;;;;;;8.93;6.50;;;10.30;99.90;;;;;;5061323;28;20106;-43
2022/06/03 04:09:03;;;;;;;8.63;6.32;;;10.30;99.90;;;;;;5064768;28;20044;-43
2022/06/03 04:11:45;;;;;;;9.93;7.68;;;10.30;99.90;;;;;;5061182;28;20469;-43
2022/06/03 04:14:57;;;;;;;10.85;6.80;;;10.30;99.90;;;;;;5065535;28;20110;-43
2022/06/03 04:17:46;;;;;;;8.77;6.70;;;10.30;99.90;;;;;;5069648;28;20048;-43
2022/06/03 04:20:54;;;;;;;12.20;6.68;;;10.40;99.90;;;;;;5065844;28;20113;-43
2022/06/03 04:23:39;;;;;;;10.60;7.10;;;10.40;99.90;;;;;;5053468;28;20382;-43
2022/06/03 04:26:47;;;;;;;12.07;8.30;;;10.40;99.90;;;;;;5055605;28;20064;-42
2022/06/03 04:29:39;;;;;;;12.15;6.75;;;10.40;99.90;;;;;;5059132;28;20115;-43
2022/06/03 04:32:34;;;;;;;8.48;6.07;;;10.40;99.90;;;;;;5051584;28;20135;-43
2022/06/03 04:35:46;;;;;;;14.63;8.43;;;10.40;99.90;;;;;;5054879;28;20132;-43
2022/06/03 04:38:50;;;;;;;12.13;7.72;;;10.50;99.90;;;;;;5061081;28;20408;-42
2022/06/03 04:41:58;;;;;;;12.90;7.88;;;10.50;99.90;;;;;;5028411;28;20053;-43
2022/06/03 04:45:02;;;;;;;10.27;7.80;;;10.50;99.90;;;;;;5048446;28;20106;-43
2022/06/03 04:48:11;;;;;;;15.65;7.95;;;10.60;99.90;;;;;;5068131;28;20059;-44
2022/06/03 04:51:05;;;;;;;11.48;7.97;;;10.60;99.90;;;;;;5053987;28;20076;-43
2022/06/03 04:54:06;;;;;;;12.23;7.75;;;10.70;99.90;;;;;;5056719;28;20088;-43
2022/06/03 04:57:25;;;;;;;12.93;8.43;;;10.70;99.90;;;;;;5054034;28;20080;-44
2022/06/03 05:00:25;;;;;;;17.25;9.05;;;10.70;99.90;;;;;;5063490;28;20047;-42
2022/06/03 05:03:25;;;;;;;9.75;7.30;;;10.80;99.90;;;;;;5063169;28;20088;-43
2022/06/03 05:06:29;;;;;;;15.57;9.00;;;10.90;99.90;;;;;;5057345;28;20134;-44
2022/06/03 05:09:27;;;;;;;11.73;8.38;;;11.00;99.90;;;;;;5063761;28;20040;-44
2022/06/03 05:12:31;;;;;;;11.90;8.15;;;11.00;99.90;;;;;;5070921;28;20043;-45
2022/06/03 05:15:33;;;;;;;14.13;8.30;;;11.10;99.90;;;;;;5057208;28;20045;-44
2022/06/03 05:18:10;;;;;;;16.35;8.85;;;11.20;99.90;;;;;;5064848;28;20076;-44
2022/06/03 05:21:15;;;;;;;12.32;8.43;;;11.30;99.90;;;;;;5054846;28;20086;-43
2022/06/03 05:23:49;;;;;;;13.15;8.20;;;11.40;99.90;;;;;;5075270;28;20068;-43
2022/06/03 05:26:41;;;;;;;11.55;8.60;;;11.50;99.90;;;;;;5064891;28;20488;-43
2022/06/03 05:29:43;;;;;;;12.60;8.32;;;11.60;99.90;;;;;;5062774;28;20449;-43
2022/06/03 05:32:55;;;;;;;11.07;8.20;;;11.80;99.90;;;;;;5062271;28;20477;-43
2022/06/03 05:35:35;;;;;;;11.57;8.20;;;11.90;99.90;;;;;;5067236;28;20117;-44
2022/06/03 05:38:33;;;;;;;14.98;8.02;;;12.00;99.90;;;;;;5057611;28;20053;-42
2022/06/03 05:42:23;;;;;;;11.05;7.78;;;12.20;99.90;;;;;;5042956;28;20463;-43
2022/06/03 05:43:59;;;;;;;10.95;7.65;;;12.40;99.90;;;;;;5060037;28;20052;-44
2022/06/03 05:46:33;;;;;;;10.25;6.97;;;12.50;99.90;;;;;;5053775;28;20088;-43
2022/06/03 05:49:08;;;;;;;9.18;6.97;;;12.60;99.90;;;;;;5059371;28;20129;-43
2022/06/03 05:51:48;;;;;;;12.43;6.93;;;12.70;99.90;;;;;;5090574;28;20084;-43
2022/06/03 05:54:21;;;;;;;12.88;7.28;;;12.80;99.90;;;;;;5024202;22;20147;-43
2022/06/03 05:56:52;;;;;;;11.07;7.35;;;13.00;99.90;;;;;;5068534;28;20507;-43
2022/06/03 05:59:27;;;;;;;9.52;7.00;;;13.10;99.90;;;;;;5060424;28;20052;-44
2022/06/03 06:02:06;;;;;;;13.05;6.65;;;13.10;99.90;;;;;;5059324;28;20048;-44
2022/06/03 06:04:40;;;;;;;11.18;6.22;;;13.30;99.90;;;;;;5059840;28;20052;-44
2022/06/03 06:07:12;;;;;;;11.93;6.05;;;13.40;99.90;;;;;;5057969;28;20107;-44
2022/06/03 06:09:47;;;;;;;;;;;13.50;99.90;;;;;;5070039;28;20054;-43
2022/06/03 06:12:20;;;;;;;12.32;6.00;;;13.60;99.40;;;;;;5064130;28;20465;-43
2022/06/03 06:14:57;;;;;;;7.30;5.53;;;13.70;99.70;;;;;;5071714;28;20408;-44
2022/06/03 06:17:43;;;;;;;9.18;5.25;;;13.80;99.40;;;;;;5081482;28;20091;-44
2022/06/03 06:20:19;;;;;;;10.02;5.30;;;14.00;98.90;;;;;;5069359;28;20052;-44
2022/06/03 06:22:47;;;;;;;10.77;4.90;;;14.10;98.50;;;;;;5069600;28;20068;-43
2022/06/03 06:25:16;;;;;;;10.30;5.05;;;14.30;98.90;;;;;;5069659;28;20072;-44
2022/06/03 06:27:57;;;;;;;6.93;4.38;;;14.40;98.30;;;;;;5075371;28;20052;-44
2022/06/03 06:30:50;;;;;;;8.77;4.47;;;14.60;97.50;;;;;;5074016;28;20650;-43
2022/06/03 06:33:41;;;;;;;6.03;4.15;;;14.80;97.20;;;;;;5061522;28;20084;-45
2022/06/03 06:36:20;;;;;;;10.77;4.70;;;15.00;96.10;;;;;;5065185;28;20061;-46
2022/06/03 06:38:52;;;;;;;5.38;3.90;;;15.10;96.30;;;;;;5072938;28;20051;-43
2022/06/03 06:41:35;;;;;;;5.47;3.92;;;15.20;96.20;;;;;;5073676;28;20143;-43
2022/06/03 06:44:07;;;;;;;8.75;4.40;;;15.30;95.40;;;;;;5072016;28;20453;-43
2022/06/03 06:46:38;;;;;;;7.38;4.07;;;15.40;95.40;;;;;;5071119;28;20057;-43
2022/06/03 06:49:16;;;;;;;7.88;4.38;;;15.60;95.50;;;;;;5068058;28;20098;-43
2022/06/03 06:51:58;;;;;;;7.07;4.03;;;15.80;94.90;;;;;;5060314;28;20499;-43
2022/06/03 06:54:30;;;;;;;9.35;4.28;;;15.90;94.60;;;;;;5054023;28;20516;-44
2022/06/03 06:56:59;;;;;;;9.80;4.80;;;16.00;94.60;;;;;;5052828;28;20129;-43
2022/06/03 06:59:30;;;;;;;6.07;4.10;;;16.20;94.60;;;;;;5055955;28;20095;-43
2022/06/03 07:02:00;;;;;;;6.95;4.40;;;16.30;94.30;;;;;;5061984;28;20044;-43
2022/06/03 07:04:29;;;;;;;8.63;4.13;;;16.40;94.10;;;;;;5053657;28;20110;-43
2022/06/03 07:06:59;;;;;;;7.10;3.95;;;16.60;93.80;;;;;;5058039;28;20053;-43
2022/06/03 07:09:49;;;;;;;8.52;4.57;;;16.70;93.40;;;;;;5068050;28;20072;-43
2022/06/03 07:12:18;;;;;;;8.65;4.75;;;16.80;92.40;;;;;;5072627;28;20303;-43
2022/06/03 07:14:54;;;;;;;7.82;4.15;;;16.90;93.00;;;;;;5056859;28;20114;-43
2022/06/03 07:20:12;;;;;;;6.97;4.15;;;17.20;92.90;;;;;;5053873;28;20053;-43
2022/06/03 07:22:42;;;;;;;9.30;4.32;;;17.30;92.40;;;;;;5072589;28;20048;-43
2022/06/03 07:25:15;;;;;;;6.72;3.80;;;17.50;92.40;;;;;;5072187;28;20106;-43
2022/06/03 07:27:50;;;;;;;9.55;4.28;;;17.70;92.50;;;;;;5070633;28;20492;-43
2022/06/03 07:30:19;;;;;;;7.57;4.30;;;17.90;91.70;;;;;;5071460;28;20049;-43
2022/06/03 07:32:47;;;;;;;7.55;4.03;;;17.90;91.30;;;;;;5072628;28;20095;-44
2022/06/03 07:35:18;;;;;;;6.43;3.50;;;18.00;91.30;;;;;;5072332;28;20079;-43
2022/06/03 07:37:48;;;;;;;8.95;3.75;;;18.10;91.70;;;;;;5073152;28;20386;-44
2022/06/03 07:40:18;;;;;;;5.50;3.50;;;18.40;91.50;;;;;;5071865;28;20129;-43
2022/06/03 07:42:49;;;;;;;6.18;4.30;;;18.60;91.40;;;;;;5056632;28;20048;-43
2022/06/03 07:45:43;;;;;;;5.55;3.13;;;18.70;90.70;;;;;;5063507;28;20052;-43
2022/06/03 07:48:12;;;;;;;7.00;3.10;;;18.90;90.90;;;;;;5072814;28;20052;-44
2022/06/03 07:50:44;;;;;;;6.60;3.47;;;19.10;90.70;;;;;;5071789;28;20045;-44
2022/06/03 07:53:13;;;;;;;7.07;3.63;;;19.20;90.40;;;;;;5071677;28;20087;-42
2022/06/03 07:55:40;;;;;;;7.00;2.78;;;19.40;89.70;;;;;;5073180;28;20060;-44
2022/06/03 07:58:15;;;;;;;5.32;3.28;;;19.50;90.30;;;;;;5071969;28;20064;-44
2022/06/03 08:00:44;;;;;;;5.20;3.35;;;19.80;89.40;;;;;;5071659;28;20076;-44
2022/06/03 08:03:14;;;;;;;8.50;3.70;;;19.90;87.60;;;;;;5071594;28;20052;-44
2022/06/03 08:05:43;;;;;;;4.90;3.13;;;20.00;86.80;;;;;;5071923;28;20084;-44
2022/06/03 08:10:57;;;;;;;7.70;3.70;;;20.00;86.00;;;;;;5071105;28;20451;-44
2022/06/03 08:13:26;;;;;;;12.57;3.63;;;20.00;85.10;;;;;;5070882;28;20131;-44
2022/06/03 08:15:54;;;;;;;6.47;3.67;;;20.10;85.10;;;;;;5067398;28;20083;-44
2022/06/03 08:18:20;;;;;;;7.30;3.70;;;20.20;85.20;;;;;;5070638;28;20055;-44
2022/06/03 08:20:49;;;;;;;7.68;3.42;;;20.30;84.50;;;;;;5071193;28;20080;-44
2022/06/03 08:23:16;;;;;;;6.93;3.42;;;20.40;84.50;;;;;;5072514;28;20088;-45
2022/06/03 08:25:44;;;;;;;7.82;3.95;;;20.50;84.60;;;;;;5070874;28;20049;-44
2022/06/03 08:28:13;;;;;;;10.52;4.00;;;20.60;83.50;;;;;;5069401;28;20516;-44
2022/06/03 08:30:41;;;;;;;7.65;3.85;;;20.70;83.20;;;;;;5068847;28;20056;-44
2022/06/03 08:33:10;;;;;;;8.23;3.88;;;20.80;81.80;;;;;;5070510;28;20167;-44
2022/06/03 08:35:39;;;;;;;6.18;3.05;;;20.90;81.90;;;;;;5072326;28;20153;-44
2022/06/03 08:38:07;;;;;;;4.97;3.53;;;21.00;82.10;;;;;;5061719;28;20083;-44
2022/06/03 08:40:37;;;;;;;6.78;3.88;;;21.20;81.90;;;;;;5057753;28;20044;-44
2022/06/03 08:43:07;;;;;;;6.55;4.03;;;21.30;80.00;;;;;;5070440;28;20056;-43
2022/06/03 08:45:39;;;;;;;6.22;3.60;;;21.40;79.10;;;;;;5060167;28;20056;-44
2022/06/03 08:48:09;;;;;;;6.95;3.22;;;21.30;78.70;;;;;;5068230;28;20139;-44
2022/06/03 08:50:41;;;;;;;8.53;3.70;;;21.40;78.90;;;;;;5069168;28;20087;-43
2022/06/03 08:53:10;;;;;;;7.22;3.28;;;21.50;78.10;;;;;;5069220;28;20549;-43
2022/06/03 08:55:41;;;;;;;8.00;3.15;;;21.60;78.10;;;;;;5070787;28;20048;-44
2022/06/03 08:58:13;;;;;;;5.83;2.80;;;21.80;77.30;;;;;;5068623;28;20409;-44
2022/06/03 09:00:49;;;;;;;7.70;3.28;;;21.90;77.70;;;;;;5070980;28;20044;-45
2022/06/03 09:03:18;;;;;;;9.70;3.03;;;22.00;77.10;;;;;;5050542;28;20128;-45
2022/06/03 09:05:47;;;;;;;4.85;2.92;;;22.20;77.90;;;;;;5050091;28;20053;-44
2022/06/03 09:08:17;;;;;;;6.13;3.25;;;22.50;77.90;;;;;;5050428;28;20084;-44
2022/06/03 09:10:48;;;;;;;4.03;3.10;;;22.60;75.90;;;;;;5053029;28;20125;-45
2022/06/03 09:13:17;;;;;;;6.05;3.78;;;22.70;75.50;;;;;;5070635;28;20554;-44
2022/06/03 09:15:44;;;;;;;5.50;2.90;;;22.80;72.60;;;;;;5070449;28;20484;-45
2022/06/03 09:18:14;;;;;;;7.70;2.53;;;22.60;72.20;;;;;;5071731;28;20496;-45
2022/06/03 09:20:45;;;;;;;4.57;2.60;;;22.60;73.00;;;;;;5069568;28;20055;-45
2022/06/03 09:23:14;;;;;;;8.93;3.63;;;22.70;74.30;;;;;;5051429;28;20481;-44
2022/06/03 09:25:43;;;;;;;5.78;3.10;;;22.90;72.70;;;;;;5051616;28;20056;-44
2022/06/03 09:28:15;;;;;;;4.55;2.65;;;23.00;70.50;;;;;;5067438;28;20261;-45
2022/06/03 09:30:41;;;;;;;;;;;23.00;71.20;;;;;;5070084;28;20097;-44
2022/06/03 09:33:11;;;;;;;4.55;2.22;;;23.00;68.00;;;;;;5071670;28;20162;-45
2022/06/03 09:35:40;;;;;;;3.90;2.53;;;23.10;70.20;;;;;;5068938;28;20059;-44
2022/06/03 09:38:08;;;;;;;6.00;2.65;;;23.10;68.20;;;;;;5070197;28;20045;-45
2022/06/03 09:40:40;;;;;;;8.30;2.47;;;23.10;66.30;;;;;;5071088;28;20434;-44
2022/06/03 09:43:13;;;;;;;6.50;2.67;;;23.10;67.70;;;;;;5071454;28;20083;-45
2022/06/03 09:45:40;;;;;;;6.72;2.65;;;23.20;67.90;;;;;;5070555;28;20102;-44
2022/06/03 09:48:09;;;;;;;3.28;2.35;;;23.20;67.70;;;;;;5067366;28;20060;-45
2022/06/03 09:50:36;;;;;;;6.18;2.63;;;23.30;66.60;;;;;;5069162;28;20060;-45
2022/06/03 09:53:04;;;;;;;4.65;2.30;;;23.40;65.80;;;;;;5069157;28;20487;-44
2022/06/03 09:55:36;;;;;;;7.72;2.15;;;23.30;64.90;;;;;;5072729;28;20086;-45
2022/06/03 09:58:03;;;;;;;4.63;2.40;;;23.40;64.30;;;;;;5075162;28;20048;-45
2022/06/03 10:00:30;;;;;;;7.15;2.60;;;23.40;63.40;;;;;;5075106;28;20072;-45
2022/06/03 10:02:58;;;;;;;5.20;2.67;;;23.40;63.90;;;;;;5074741;28;20048;-45
2022/06/03 10:05:25;;;;;;;4.28;2.67;;;23.50;64.30;;;;;;5074890;28;20216;-44
2022/06/03 10:08:00;;;;;;;5.60;2.33;;;23.50;63.40;;;;;;5074015;28;20110;-44
2022/06/03 10:13:12;;;;;;;6.40;2.35;;;23.80;62.80;;;;;;5066448;28;20048;-43
2022/06/03 10:15:43;;;;;;;4.20;2.22;;;23.80;63.10;;;;;;5054863;28;20147;-43
2022/06/03 10:18:15;;;;;;;;;;;23.90;62.80;;;;;;5055542;28;20049;-44
2022/06/03 10:20:42;;;;;;;5.30;2.00;;;24.00;63.60;;;;;;5054946;28;19960;-43
2022/06/03 10:23:09;;;;;;;5.95;2.10;;;24.00;62.90;;;;;;5073991;28;20443;-44
2022/06/03 10:25:36;;;;;;;5.47;2.00;;;24.20;61.40;;;;;;5074404;28;20061;-43
2022/06/03 10:28:04;;;;;;;6.93;2.15;;;24.20;61.00;;;;;;5074502;28;20048;-46
2022/06/03 10:30:33;;;;;;;5.28;2.10;;;24.20;60.70;;;;;;5073278;28;20386;-44
2022/06/03 10:33:00;;;;;;;4.28;1.92;;;24.30;61.40;;;;;;5075752;28;20076;-44
2022/06/03 10:35:28;;;;;;;4.25;2.08;;;24.40;59.50;;;;;;5075514;28;20368;-44
2022/06/03 10:37:56;;;;;;;4.85;1.60;;;24.50;59.80;;;;;;5067305;28;20159;-44
2022/06/03 10:40:24;;;;;;;4.68;1.90;;;24.60;58.30;;;;;;5058496;28;20048;-44
2022/06/03 10:42:54;;;;;;;3.35;1.80;;;24.70;58.40;;;;;;5064628;28;20053;-44
2022/06/03 10:45:26;;;;;;;3.03;1.85;;;24.70;57.50;;;;;;5054619;28;20057;-44
2022/06/03 10:47:54;;;;;;;3.83;2.17;;;24.80;57.10;;;;;;5072902;28;20045;-44
2022/06/03 10:50:29;;;;;;;2.78;1.80;;;25.00;56.20;;;;;;5064779;28;20053;-44
2022/06/03 11:01:31;;;;;;;5.25;2.03;;;25.20;57.60;;;;;;5058758;28;20052;-45
2022/06/03 11:03:59;;;;;;;4.38;2.13;;;25.20;56.10;;;;;;5064715;28;20049;-45
2022/06/03 11:06:28;;;;;;;4.03;2.20;;;25.00;55.10;;;;;;5056132;28;20065;-45
2022/06/03 11:08:58;;;;;;;4.43;2.20;;;24.90;55.70;;;;;;5060313;28;20049;-45
2022/06/03 11:11:42;;;;;;;3.25;2.05;;;24.90;55.60;;;;;;5054890;28;20049;-45
2022/06/03 11:14:39;;;;;;;4.38;2.28;;;24.90;55.50;;;;;;5053694;28;20140;-45
2022/06/03 11:17:09;;;;;;;7.70;2.30;;;25.00;55.40;;;;;;5053979;28;20131;-48
2022/06/03 11:19:43;;;;;;;3.47;1.58;;;24.90;55.50;;;;;;5055646;28;20049;-44
2022/06/03 11:22:19;;;;;;;1.50;1.40;;;25.00;56.50;;;;;;5074852;28;20443;-45
2022/06/03 11:24:56;;;;;;;1.90;1.63;;;25.20;55.80;;;;;;5060519;28;20500;-45
2022/06/03 11:27:28;;;;;;;7.95;2.20;;;25.30;54.90;;;;;;5058083;28;20078;-45
2022/06/03 11:29:56;;;;;;;4.05;1.55;;;25.40;54.90;;;;;;5065206;28;20493;-45
2022/06/03 11:32:23;;;;;;;7.55;1.95;;;25.50;56.30;;;;;;5061892;28;20125;-45
2022/06/03 11:34:54;;;;;;;3.22;1.60;;;25.70;55.10;;;;;;5072596;28;20101;-45
2022/06/03 11:37:22;;;;;;;2.80;1.70;;;25.90;54.20;;;;;;5073112;28;20048;-45
2022/06/03 11:39:52;;;;;;;3.70;1.80;;;25.90;54.70;;;;;;5055871;28;20059;-45
2022/06/03 11:42:22;;;;;;;5.18;1.75;;;25.80;54.00;;;;;;5052276;28;20077;-45
2022/06/03 11:44:51;;;;;;;6.03;2.15;;;25.90;53.20;;;;;;5067047;28;20052;-45
2022/06/03 11:47:19;;;;;;;3.47;1.55;;;25.90;52.20;;;;;;5067394;28;20048;-45
2022/06/03 11:49:46;;;;;;;3.25;1.75;;;26.00;53.80;;;;;;5059429;28;20418;-44
2022/06/03 11:52:15;;;;;;;6.97;1.73;;;26.00;52.70;;;;;;5053658;28;20497;-44
2022/06/03 11:54:41;;;;;;;5.05;2.25;;;25.90;52.90;;;;;;5067609;28;20118;-45
2022/06/03 11:57:09;;;;;;;4.63;1.95;;;25.90;53.20;;;;;;5053598;28;20463;-45
2022/06/03 11:59:38;;;;;;;4.50;1.63;;;25.90;53.10;;;;;;5053933;28;20049;-44
2022/06/03 12:02:09;;;;;;;3.17;1.80;;;26.10;52.70;;;;;;5063801;28;20087;-44
2022/06/03 12:04:44;;;;;;;5.57;1.80;;;26.20;52.10;;;;;;5073886;28;20048;-45
2022/06/03 12:07:18;;;;;;;3.85;1.63;;;26.20;50.80;;;;;;5052853;28;20060;-45
2022/06/03 12:09:46;;;;;;;2.72;1.63;;;26.20;50.70;;;;;;5053909;28;20052;-44
2022/06/03 12:15:27;;;;;;;3.33;1.35;;;26.40;52.30;;;;;;5063098;28;20045;-44
2022/06/03 12:17:54;;;;;;;3.92;1.40;;;26.40;49.90;;;;;;5049639;28;20128;-44
2022/06/03 12:20:36;;;;;;;3.17;1.60;;;26.40;51.30;;;;;;5049873;28;20059;-44
2022/06/03 12:23:36;;;;;;;2.45;1.75;;;26.40;50.20;;;;;;5049206;28;20072;-45
2022/06/03 12:26:08;;;;;;;6.22;1.70;;;26.60;51.60;;;;;;5051678;28;20084;-44
2022/06/03 12:28:42;;;;;;;4.13;1.75;;;26.60;51.30;;;;;;5052765;28;20056;-44
2022/06/03 12:31:12;;;;;;;3.72;1.30;;;26.60;51.00;;;;;;5063206;28;20055;-44
2022/06/03 12:33:45;;;;;;;2.25;1.48;;;26.70;51.60;;;;;;5073309;28;20477;-44
2022/06/03 12:36:34;;;;;;;2.97;1.30;;;26.90;51.50;;;;;;5058048;28;20076;-44
2022/06/03 12:39:20;;;;;;;2.65;1.50;;;27.20;51.90;;;;;;5053455;28;20079;-44
2022/06/03 12:42:11;;;;;;;2.13;1.52;;;27.40;48.80;;;;;;5071826;28;20141;-44
2022/06/03 12:45:13;;;;;;;3.25;1.63;;;27.50;50.00;;;;;;5073846;28;20087;-44
2022/06/03 12:47:47;;;;;;;5.32;1.58;;;27.50;50.90;;;;;;5052263;28;20401;-44
2022/06/03 12:50:50;;;;;;;3.22;1.63;;;27.50;50.80;;;;;;5060709;28;20106;-44
2022/06/03 12:53:42;;;;;;;2.67;1.50;;;27.70;48.80;;;;;;5032923;28;20203;-44
2022/06/03 12:56:11;;;;;;;2.83;1.70;;;27.70;48.70;;;;;;5051633;28;20059;-44
2022/06/03 12:59:04;;;;;;;2.38;1.25;;;27.70;49.40;;;;;;5051088;28;20087;-44
2022/06/03 13:01:50;;;;;;;5.18;1.50;;;27.60;50.90;;;;;;5056992;28;20080;-44
2022/06/03 13:04:37;;;;;;;2.45;1.60;;;27.60;47.70;;;;;;5072806;28;20135;-44
2022/06/03 13:07:12;;;;;;;2.58;1.42;;;27.70;49.20;;;;;;5053077;28;20075;-44
2022/06/03 13:09:49;;;;;;;4.88;1.33;;;27.70;47.50;;;;;;5052047;28;20548;-44
2022/06/03 13:12:20;;;;;;;4.50;1.52;;;27.60;46.50;;;;;;5050907;28;20057;-44
2022/06/03 13:14:48;;;;;;;;;;;27.60;48.40;;;;;;5051891;28;20132;-44
2022/06/03 13:17:48;;;;;;;2.95;1.40;;;27.70;47.00;;;;;;5051922;28;19920;-44
2022/06/03 13:20:21;;;;;;;4.03;1.57;;;27.80;46.90;;;;;;5078934;28;20045;-44
2022/06/03 13:22:51;;;;;;;2.50;1.05;;;27.80;47.10;;;;;;5056982;28;20105;-46
2022/06/03 13:25:26;;;;;;;3.50;1.25;;;27.80;47.50;;;;;;5052513;28;20049;-44
2022/06/03 13:28:27;;;;;;;3.03;1.48;;;27.80;45.30;;;;;;5063228;28;20049;-44
2022/06/03 13:31:16;;;;;;;3.28;1.50;;;27.50;44.80;;;;;;5071962;28;20052;-44
2022/06/03 13:34:20;;;;;;;3.83;1.33;;;27.30;44.50;;;;;;5072576;28;20048;-44
2022/06/03 13:37:22;;;;;;;3.40;1.60;;;27.30;46.10;;;;;;5071473;28;20048;-44
2022/06/03 13:40:07;;;;;;;5.95;1.20;;;27.30;47.50;;;;;;5061643;28;20049;-44
2022/06/03 13:43:00;;;;;;;4.13;1.33;;;27.40;47.30;;;;;;5051211;28;20061;-44
2022/06/03 13:45:46;;;;;;;4.68;1.35;;;27.40;46.60;;;;;;5085823;28;20102;-44
2022/06/03 13:48:16;;;;;;;3.42;1.00;;;27.50;48.80;;;;;;5091248;28;20172;-44
2022/06/03 13:50:43;;;;;;;2.92;1.45;;;27.60;48.50;;;;;;5085621;28;20049;-44
2022/06/03 13:53:12;;;;;;;3.00;1.48;;;27.80;48.00;;;;;;5072310;28;20054;-44
2022/06/03 13:55:49;;;;;;;3.03;1.48;;;27.90;48.10;;;;;;5072200;28;20070;-44
2022/06/03 13:58:18;;;;;;;3.63;1.30;;;28.30;48.00;;;;;;5072199;28;20052;-44
2022/06/03 14:00:54;;;;;;;2.45;1.10;;;28.30;47.70;;;;;;5068491;28;20052;-44
2022/06/03 14:03:26;;;;;;;3.33;1.20;;;28.20;47.70;;;;;;5063265;28;20080;-44
2022/06/03 14:05:58;;;;;;;3.15;1.20;;;28.10;48.10;;;;;;5058594;28;20037;-44
2022/06/03 14:08:27;;;;;;;3.95;1.30;;;28.10;48.70;;;;;;5063428;28;20099;-44
2022/06/03 14:10:58;;;;;;;1.98;1.40;;;28.00;48.20;;;;;;5062634;28;20049;-44
2022/06/03 14:13:30;;;;;;;4.38;1.30;;;27.80;47.20;;;;;;5062774;28;20060;-44
2022/06/03 14:16:01;;;;;;;3.22;1.33;;;27.80;48.00;;;;;;5065525;28;20076;-45
2022/06/03 14:18:52;;;;;;;3.63;1.53;;;27.70;47.20;;;;;;5071005;28;20048;-44